• Join FlightAware (Why Join?)
  • Login
  • US Flag 
07:55PM EST


 

Airport Tracker/Info


-or-


 

Live Flight TrackerFlight Track Log ✈ ASQ5941 ✈ 20-Apr-2013 ✈ KORD - KAVP

Flight Track Log - Related Links

Times and Time Zones

All times are in EDT time to prevent confusion due to time zone crossing. See the ASQ5941 flight status page for this flight to view local times or setup timezone preferences in your user account.

Time Position Orientation Groundspeed Altitude Reporting Facility
EDT Latitude Longitude Course Direction KTS MPH feet Rate Location/Type
02:48PM 42.0000 -87.9333 80° East 152 175 2,000  Level Chicago TRACON
02:49PM 42.0333 -87.9000 37° Northeast 230 265 4,200 2,160 Climbing Chicago TRACON
02:49PM 42.0500 -87.8167 75° East 259 298 6,200 1,980 Climbing Chicago TRACON
02:51PM 42.0642 -87.2746 78° East  Level FlightAware Approximate
02:52PM 42.0890 -87.1162 77° East  Level FlightAware Approximate
02:52PM 42.0594 -87.6144 86° East 290 334 10,200  Level Chicago Center
02:53PM 42.1055 -86.9565 80° East  Level FlightAware Approximate
02:53PM 42.0700 -87.4969 83° East 310 357 12,200  Level Chicago Center
02:54PM 42.0825 -87.3753 82° East 327 376 13,500 1,020 Climbing Chicago Center
02:55PM 42.0983 -87.2089 83° East 372 428 14,400 960 Climbing Chicago Center
02:56PM 42.1117 -87.0642 83° East 388 447 15,500 1,080 Climbing Chicago Center
02:57PM 42.1169 -86.9106 87° East 408 470 16,700 1,140 Climbing Chicago Center
02:58PM 42.1233 -86.7583 87° East 411 473 17,900 960 Climbing Chicago Center
02:59PM 42.1283 -86.6039 87° East 418 481 18,700 840 Climbing Chicago Center
03:00PM 42.1339 -86.4400 87° East 433 498 19,700 960 Climbing Chicago Center
03:01PM 42.1394 -86.2717 87° East 447 514 20,700 1,080 Climbing Chicago Center
03:02PM 42.1436 -86.0631 88° East 462 532 22,000 1,020 Climbing Chicago Center
03:03PM 42.1419 -85.9033 91° East 465 535 22,900 1,020 Climbing Chicago Center
03:04PM 42.1403 -85.7267 91° East 471 542 24,100 1,140 Climbing Chicago Center
03:05PM 42.1386 -85.5514 91° East 471 542 25,300 1,260 Climbing Chicago Center
03:06PM 42.1361 -85.3422 91° East 468 539 26,800 1,320 Climbing Chicago Center
03:07PM 42.1375 -85.2153 89° East 476 548 27,700 1,200 Climbing Cleveland Center
03:08PM 42.1358 -85.0469 91° East 458 527 28,900 1,140 Climbing Cleveland Center
03:09PM 42.1281 -84.8644 93° East 466 536 30,000 1,080 Climbing Cleveland Center
03:10PM 42.1278 -84.7019 90° East 460 529 31,100 1,020 Climbing Cleveland Center
03:11PM 42.1258 -84.5253 91° East 460 529 32,100 960 Climbing Cleveland Center
03:12PM 42.1347 -84.3858 85° East 465 535 33,100 1,140 Climbing Cleveland Center
03:13PM 42.1514 -84.1853 84° East 460 529 34,400 900 Climbing Cleveland Center
03:14PM 42.1714 -84.0097 81° East 468 539 35,000 300 Climbing Cleveland Center
03:15PM 42.1908 -83.8456 81° East 474 545 35,000  Level Cleveland Center
03:16PM 42.2083 -83.6642 83° East 481 554 35,000  Level Cleveland Center
03:17PM 42.2264 -83.4517 83° East 499 574 35,000  Level Cleveland Center
03:18PM 42.2289 -83.2611 89° East 507 583 35,000  Level Cleveland Center
03:19PM 42.2328 -83.0931 88° East 507 583 35,000  Level Cleveland Center
03:20PM 42.2325 -82.8994 90° East 507 583 35,000  Level Cleveland Center
03:21PM 42.2319 -82.7117 90° East 507 583 35,000  Level Cleveland Center
03:22PM 42.2333 -82.5181 89° East 507 583 35,000  Level Cleveland Center
03:23PM 42.2322 -82.3247 90° East 507 583 35,000  Level Cleveland Center
03:24PM 42.2331 -82.1311 90° East 512 589 35,000  Level Cleveland Center
03:25PM 42.2311 -81.9403 91° East 512 589 35,000  Level Cleveland Center
03:26PM 42.2311 -81.7525 90° East 507 583 35,000  Level Cleveland Center
03:27PM 42.2289 -81.5506 91° East 494 568 35,000  Level Cleveland Center
03:28PM 42.2283 -81.3711 90° East 489 563 35,000  Level Cleveland Center
03:29PM 42.2272 -81.1803 90° East 496 571 35,000  Level Cleveland Center
03:30PM 42.2261 -80.9925 90° East 496 571 35,000  Level Cleveland Center
03:31PM 42.2203 -80.7961 92° East 502 578 35,000  Level Cleveland Center
03:32PM 42.2206 -80.6000 90° East 515 593 35,000  Level Cleveland Center
03:33PM 42.2058 -80.4094 96° East 515 593 35,000  Level Cleveland Center
03:34PM 42.1844 -80.2414 100° East 515 593 35,000  Level Cleveland Center
03:35PM 42.1631 -80.0508 99° East 515 593 35,000  Level Cleveland Center
03:36PM 42.1392 -79.8664 100° East 510 587 35,000  Level Cleveland Center
03:37PM 42.1147 -79.6764 100° East 510 587 35,000  Level Cleveland Center
03:38PM 42.0903 -79.4947 100° East 504 580 35,000 -180 Level Cleveland Center
03:39PM 42.0675 -79.3078 99° East 504 580 34,700 -660 Descending Cleveland Center
03:40PM 42.0403 -79.1239 101° East 504 580 33,700 -1,140 Descending Cleveland Center
03:41PM 42.0525 -78.9361 85° East 497 572 32,500 -1,800 Descending Cleveland Center
03:42PM 42.0789 -78.7481 79° East 497 572 30,200 -2,460 Descending Cleveland Center
03:43PM 42.0986 -78.5600 82° East 503 579 27,600 -2,100 Descending Cleveland Center
03:44PM 42.0681 -78.3819 103° East 489 563 26,100 -1,320 Descending Cleveland Center
03:45PM 42.0311 -78.1958 105° East 499 574 25,000 -600 Descending Cleveland Center
03:46PM 41.9897 -78.0158 107° East 504 580 25,000 -660 Level Cleveland Center
03:47PM 41.9239 -77.7261 107° East 490 564 23,400 -780 Descending New York Center
03:48PM 41.8839 -77.5547 107° East 485 558 23,000 -240 Descending New York Center
03:49PM 41.8439 -77.3778 107° East 485 558 23,000  Level New York Center
03:50PM 41.8036 -77.1958 106° East 495 570 23,000  Level New York Center
03:51PM 41.7578 -77.0050 108° East 495 570 23,000 -1,200 Level New York Center
03:52PM 41.7181 -76.8428 108° East 488 562 20,600 -2,880 Descending New York Center
03:53PM 41.6842 -76.6925 107° East 466 536 17,300 -3,420 Descending New York Center
03:54PM 41.6481 -76.5367 107° East 450 518 13,900 -2,940 Descending New York Center
03:55PM 41.6097 -76.3808 108° East 418 481 11,500 -1,740 Descending New York Center
03:56PM 41.5803 -76.2536 107° East 375 432 10,400 -1,380 Descending New York Center
03:57PM 41.5558 -76.1517 108° East 325 374 8,800 -1,620 Descending New York Center
03:58PM 41.5181 -76.0600 119° Southeast 294 338 7,200 -1,740 Descending New York Center
03:59PM 41.5064 -75.9483 98° East 274 315 5,400 -1,560 Descending New York Center
04:00PM 41.4961 -75.8506 98° East 268 308 4,100 -660 Descending New York Center
04:01PM 41.4836 -75.7528 100° East 263 303 4,100  Level New York Center